createdAt,value
2022-11-18T00:02:27.055Z,10.40
2022-11-18T00:05:14.019Z,10.50
2022-11-18T00:08:00.389Z,10.50
2022-11-18T00:10:48.317Z,10.60
2022-11-18T00:13:52.629Z,10.60
2022-11-18T00:16:39.129Z,10.50
2022-11-18T00:19:27.417Z,10.40
2022-11-18T00:22:14.678Z,10.20
2022-11-18T00:25:01.005Z,10.30
2022-11-18T00:27:48.775Z,10.40
2022-11-18T00:30:35.355Z,10.40
2022-11-18T00:33:22.108Z,10.50
2022-11-18T00:36:11.542Z,10.20
2022-11-18T00:38:58.575Z,10.00
2022-11-18T00:42:03.022Z,10.00
2022-11-18T00:44:50.908Z,9.90
2022-11-18T00:47:37.347Z,9.90
2022-11-18T00:50:23.663Z,9.90
2022-11-18T00:53:10.127Z,9.80
2022-11-18T00:55:56.400Z,9.80
2022-11-18T00:58:42.889Z,9.80
2022-11-18T01:01:30.611Z,9.70
2022-11-18T01:04:17.234Z,9.70
2022-11-18T01:07:04.014Z,9.80
2022-11-18T01:09:50.605Z,9.70
2022-11-18T01:12:54.996Z,9.90
2022-11-18T01:15:43.280Z,10.00
2022-11-18T01:18:32.341Z,10.00
2022-11-18T01:21:19.411Z,10.20
2022-11-18T01:24:06.556Z,10.20
2022-11-18T01:26:52.960Z,10.30
2022-11-18T01:29:39.378Z,10.40
2022-11-18T01:32:25.930Z,10.50
2022-11-18T01:35:14.318Z,10.50
2022-11-18T01:38:00.989Z,10.50
2022-11-18T01:40:47.202Z,10.50
2022-11-18T01:43:49.972Z,10.60
2022-11-18T01:46:36.805Z,10.50
2022-11-18T01:49:23.340Z,10.60
2022-11-18T01:52:13.002Z,10.50
2022-11-18T01:55:04.747Z,10.30
2022-11-18T01:57:57.616Z,10.20
2022-11-18T02:00:44.145Z,10.20
2022-11-18T02:03:31.017Z,10.10
2022-11-18T02:06:18.278Z,10.00
2022-11-18T02:09:06.568Z,9.90
2022-11-18T02:11:54.346Z,9.80
2022-11-18T02:14:45.261Z,9.80
2022-11-18T02:17:41.865Z,9.80
2022-11-18T02:20:33.037Z,9.70
2022-11-18T02:23:54.392Z,9.60
2022-11-18T02:27:23.229Z,9.50
2022-11-18T02:30:12.898Z,9.50
2022-11-18T02:33:08.046Z,9.50
2022-11-18T02:36:02.000Z,9.40
2022-11-18T02:38:53.336Z,9.40
2022-11-18T02:41:42.878Z,9.50
2022-11-18T02:44:31.925Z,9.50
2022-11-18T02:47:21.789Z,9.40
2022-11-18T02:50:12.673Z,9.30
2022-11-18T02:53:02.429Z,9.30
2022-11-18T02:55:50.717Z,9.30
2022-11-18T02:58:37.734Z,9.40
2022-11-18T03:01:27.430Z,9.60
2022-11-18T03:04:17.332Z,9.70
2022-11-18T03:07:10.975Z,9.80
2022-11-18T03:09:59.599Z,9.90
2022-11-18T03:12:53.606Z,9.70
2022-11-18T03:15:50.028Z,9.80
2022-11-18T03:18:46.169Z,9.80
2022-11-18T03:21:38.707Z,9.80
2022-11-18T03:24:31.181Z,9.80
2022-11-18T03:27:22.489Z,9.80
2022-11-18T03:30:12.249Z,9.80
2022-11-18T03:33:03.531Z,9.70
2022-11-18T03:35:52.687Z,9.70
2022-11-18T03:38:46.593Z,9.60
2022-11-18T03:41:37.487Z,9.60
2022-11-18T03:44:30.043Z,9.60
2022-11-18T03:47:24.828Z,9.60
2022-11-18T03:50:13.937Z,9.60
2022-11-18T03:53:03.108Z,9.60
2022-11-18T03:55:54.768Z,9.70
2022-11-18T03:58:49.154Z,9.80
2022-11-18T04:01:41.982Z,9.80
2022-11-18T04:04:29.536Z,9.70
2022-11-18T04:07:24.826Z,9.70
2022-11-18T04:10:17.465Z,9.80
2022-11-18T04:13:08.430Z,9.90
2022-11-18T04:15:55.460Z,9.90
2022-11-18T04:18:42.258Z,9.90
2022-11-18T04:21:28.599Z,9.90
2022-11-18T04:24:14.864Z,9.90
2022-11-18T04:27:02.595Z,9.80
2022-11-18T04:29:50.676Z,9.80
2022-11-18T04:32:37.070Z,9.80
2022-11-18T04:35:25.989Z,9.70
2022-11-18T04:38:14.615Z,9.60
2022-11-18T04:41:03.453Z,9.60
2022-11-18T04:43:49.823Z,9.60
2022-11-18T04:46:37.723Z,9.60
2022-11-18T04:49:25.096Z,9.60
2022-11-18T04:52:11.578Z,9.50
2022-11-18T04:54:58.016Z,9.50
2022-11-18T04:57:44.453Z,9.60
2022-11-18T05:00:30.823Z,9.60
2022-11-18T05:03:18.599Z,9.70
2022-11-18T05:06:05.111Z,9.70
2022-11-18T05:08:51.926Z,9.50
2022-11-18T05:11:55.904Z,9.50
2022-11-18T05:14:48.156Z,9.50
2022-11-18T05:17:36.349Z,9.40
2022-11-18T05:20:24.275Z,9.30
2022-11-18T05:23:10.644Z,9.20
2022-11-18T05:26:02.272Z,9.20
2022-11-18T05:28:49.132Z,9.20
2022-11-18T05:31:35.568Z,9.30
2022-11-18T05:34:23.585Z,9.20
2022-11-18T05:37:11.710Z,9.20
2022-11-18T05:39:57.905Z,9.20
2022-11-18T05:43:01.580Z,9.10
2022-11-18T05:45:51.011Z,9.10
2022-11-18T05:48:37.391Z,9.10
2022-11-18T05:51:26.857Z,9.20
2022-11-18T05:54:16.755Z,9.20
2022-11-18T05:57:03.098Z,9.20
2022-11-18T05:59:49.337Z,9.20
2022-11-18T06:02:36.561Z,9.30
2022-11-18T06:05:24.284Z,9.30
2022-11-18T06:08:13.277Z,9.30
2022-11-18T06:11:01.504Z,9.30
2022-11-18T06:13:53.058Z,9.30
2022-11-18T06:16:41.454Z,9.20
2022-11-18T06:19:28.269Z,9.10
2022-11-18T06:22:15.349Z,9.20
2022-11-18T06:25:02.067Z,9.10
2022-11-18T06:27:52.593Z,8.90
2022-11-18T06:30:39.316Z,9.00
2022-11-18T06:33:25.628Z,8.90
2022-11-18T06:36:15.200Z,8.90
2022-11-18T06:39:05.081Z,8.90
2022-11-18T06:41:53.813Z,9.10
2022-11-18T06:44:40.571Z,9.20
2022-11-18T06:47:27.545Z,9.10
2022-11-18T06:50:14.200Z,9.10
2022-11-18T06:53:01.737Z,9.10
2022-11-18T06:55:48.126Z,9.10
2022-11-18T06:58:35.331Z,9.10
2022-11-18T07:01:25.059Z,9.10
2022-11-18T07:04:11.627Z,9.20
2022-11-18T07:06:58.373Z,9.10
2022-11-18T07:09:45.528Z,9.10
2022-11-18T07:12:32.093Z,9.10
2022-11-18T07:15:18.628Z,9.00
2022-11-18T07:18:07.002Z,9.10
2022-11-18T07:20:53.795Z,9.10
2022-11-18T07:23:40.592Z,9.00
2022-11-18T07:26:27.039Z,9.00
2022-11-18T07:29:13.473Z,9.10
2022-11-18T07:31:59.900Z,9.10
2022-11-18T07:34:47.704Z,9.00
2022-11-18T07:37:34.113Z,8.90
2022-11-18T07:40:20.563Z,8.90
2022-11-18T07:43:07.365Z,8.90
2022-11-18T07:45:54.296Z,9.00
2022-11-18T07:48:40.791Z,9.10
2022-11-18T07:51:30.141Z,9.20
2022-11-18T07:54:17.688Z,9.20
2022-11-18T07:57:04.195Z,9.30
2022-11-18T07:59:50.648Z,9.30
2022-11-18T08:02:37.032Z,9.40
2022-11-18T08:05:26.131Z,9.40
2022-11-18T08:08:13.972Z,9.40
2022-11-18T08:11:01.655Z,9.40
2022-11-18T08:13:48.363Z,9.40
2022-11-18T08:16:34.788Z,9.40
2022-11-18T08:19:21.295Z,9.40
2022-11-18T08:22:08.298Z,9.50
2022-11-18T08:24:56.523Z,9.40
2022-11-18T08:27:43.075Z,9.40
2022-11-18T08:30:29.821Z,9.40
2022-11-18T08:33:16.288Z,9.50
2022-11-18T08:36:07.627Z,9.60
2022-11-18T08:38:55.811Z,9.60
2022-11-18T08:41:46.764Z,9.50
2022-11-18T08:44:34.557Z,9.50
2022-11-18T08:47:23.467Z,9.60
2022-11-18T08:50:12.026Z,9.60
2022-11-18T08:52:58.752Z,9.60
2022-11-18T08:55:45.411Z,9.60
2022-11-18T08:58:33.110Z,9.60
2022-11-18T09:01:19.757Z,9.70
2022-11-18T09:04:06.729Z,9.70
2022-11-18T09:06:53.719Z,9.70
2022-11-18T09:09:40.403Z,9.80
2022-11-18T09:12:26.876Z,9.80
2022-11-18T09:15:15.341Z,9.70
2022-11-18T09:18:01.940Z,9.70
2022-11-18T09:20:55.649Z,9.70
2022-11-18T09:23:42.096Z,9.70
2022-11-18T09:26:28.567Z,9.60
2022-11-18T09:29:15.507Z,9.70
2022-11-18T09:32:03.313Z,9.80
2022-11-18T09:34:50.028Z,9.80
2022-11-18T09:37:36.315Z,9.90
2022-11-18T09:40:22.863Z,9.90
2022-11-18T09:43:16.165Z,9.90
2022-11-18T09:46:09.827Z,9.90
2022-11-18T09:49:23.015Z,9.90
2022-11-18T09:52:16.317Z,9.90
2022-11-18T09:55:02.952Z,9.90
2022-11-18T09:57:51.942Z,9.80
2022-11-18T10:00:41.428Z,9.80
2022-11-18T10:03:29.682Z,9.90
2022-11-18T10:06:25.093Z,9.90
2022-11-18T10:09:24.764Z,9.90
2022-11-18T10:12:22.415Z,10.00
2022-11-18T10:15:24.797Z,10.00
2022-11-18T10:18:45.023Z,10.00
2022-11-18T10:21:40.934Z,10.00
2022-11-18T10:24:33.375Z,10.10
2022-11-18T10:27:19.812Z,10.10
2022-11-18T10:30:13.738Z,10.20
2022-11-18T10:33:00.979Z,10.20
2022-11-18T10:35:47.570Z,10.20
2022-11-18T10:38:35.837Z,10.40
2022-11-18T10:41:25.711Z,10.40
2022-11-18T10:44:36.873Z,10.40
2022-11-18T10:47:26.386Z,10.50
2022-11-18T10:50:31.081Z,10.60
2022-11-18T10:53:32.068Z,10.60
2022-11-18T10:56:20.169Z,10.80
2022-11-18T10:59:13.440Z,11.00
2022-11-18T11:02:08.352Z,11.00
2022-11-18T11:04:56.827Z,11.10
2022-11-18T11:07:43.921Z,11.00
2022-11-18T11:10:30.589Z,10.90
2022-11-18T11:13:19.011Z,10.70
2022-11-18T11:16:07.683Z,10.70
2022-11-18T11:18:59.315Z,10.60
2022-11-18T11:21:45.858Z,10.50
2022-11-18T11:24:32.860Z,10.60
2022-11-18T11:30:43.766Z,10.70
2022-11-18T11:33:38.858Z,10.70
2022-11-18T11:36:44.746Z,10.60
2022-11-18T11:39:47.266Z,10.80
2022-11-18T11:42:44.587Z,10.90
2022-11-18T11:45:40.610Z,10.90
2022-11-18T11:48:42.946Z,10.90
2022-11-18T11:51:34.300Z,11.00
2022-11-18T11:54:44.087Z,10.90
2022-11-18T11:57:41.856Z,11.00
2022-11-18T12:00:28.870Z,11.00
2022-11-18T12:03:37.884Z,11.10
2022-11-18T12:06:25.921Z,11.10
2022-11-18T12:09:20.708Z,11.20
2022-11-18T12:12:28.025Z,11.20
2022-11-18T12:15:36.907Z,11.30
2022-11-18T12:18:32.395Z,11.30
2022-11-18T12:21:55.095Z,11.30
2022-11-18T12:24:42.716Z,11.30
2022-11-18T12:27:59.050Z,11.30
2022-11-18T12:30:45.716Z,11.40
2022-11-18T12:33:32.167Z,11.20
2022-11-18T12:36:27.493Z,11.30
2022-11-18T12:39:57.127Z,11.30
2022-11-18T12:43:04.457Z,11.30
2022-11-18T12:45:54.909Z,11.20
2022-11-18T12:48:42.418Z,11.30
2022-11-18T12:51:50.582Z,11.30
2022-11-18T12:54:40.111Z,11.70
2022-11-18T12:57:29.794Z,11.90
2022-11-18T13:00:29.210Z,12.10
2022-11-18T13:03:24.286Z,12.30
2022-11-18T13:06:22.394Z,12.30
2022-11-18T13:09:17.304Z,12.40
2022-11-18T13:12:08.629Z,12.40
2022-11-18T13:15:13.361Z,12.30
2022-11-18T13:18:12.791Z,12.30
2022-11-18T13:21:21.213Z,12.20
2022-11-18T13:24:07.518Z,12.10
2022-11-18T13:26:57.517Z,11.80
2022-11-18T13:29:54.031Z,11.70
2022-11-18T13:32:45.948Z,11.60
2022-11-18T13:35:33.759Z,11.50
2022-11-18T13:38:28.089Z,11.30
2022-11-18T13:41:22.551Z,11.20
2022-11-18T13:44:16.415Z,11.20
2022-11-18T13:47:13.580Z,11.20
2022-11-18T13:50:12.669Z,11.20
2022-11-18T13:53:10.051Z,11.30
2022-11-18T13:56:01.618Z,11.50
2022-11-18T13:59:16.328Z,11.40
2022-11-18T14:02:02.909Z,11.30
2022-11-18T14:04:53.207Z,11.30
2022-11-18T14:07:40.248Z,11.40
2022-11-18T14:10:39.238Z,11.40
2022-11-18T14:13:28.797Z,11.30
2022-11-18T14:16:33.020Z,11.40
2022-11-18T14:19:30.871Z,11.40
2022-11-18T14:22:19.735Z,11.40
2022-11-18T14:25:19.324Z,11.40
2022-11-18T14:28:14.683Z,11.40
2022-11-18T14:31:04.877Z,11.40
2022-11-18T14:34:18.577Z,11.40
2022-11-18T14:37:12.534Z,11.30
2022-11-18T14:39:59.600Z,11.30
2022-11-18T14:42:46.253Z,11.30
2022-11-18T14:45:34.583Z,11.30
2022-11-18T14:48:31.133Z,11.30
2022-11-18T14:51:19.002Z,11.30
2022-11-18T14:54:05.697Z,11.30
2022-11-18T14:56:54.025Z,11.20
2022-11-18T14:59:40.562Z,11.20
2022-11-18T15:02:28.613Z,11.10
2022-11-18T15:05:15.682Z,11.20
2022-11-18T15:08:02.059Z,11.10
2022-11-18T15:10:48.809Z,11.00
2022-11-18T15:13:35.453Z,11.00
2022-11-18T15:16:27.616Z,10.90
2022-11-18T15:19:16.801Z,10.80
2022-11-18T15:22:03.419Z,10.70
2022-11-18T15:24:49.830Z,10.70
2022-11-18T15:27:36.326Z,10.70
2022-11-18T15:30:25.909Z,10.70
2022-11-18T15:33:12.530Z,10.70
2022-11-18T15:36:00.300Z,10.60
2022-11-18T15:38:46.835Z,10.50
2022-11-18T15:41:33.878Z,10.60
2022-11-18T15:44:20.743Z,10.50
2022-11-18T15:47:07.618Z,10.60
2022-11-18T15:49:54.139Z,10.50
2022-11-18T15:52:41.969Z,10.60
2022-11-18T15:55:28.509Z,10.60
2022-11-18T15:58:17.250Z,10.60
2022-11-18T16:01:04.241Z,10.60
2022-11-18T16:03:51.285Z,10.60
2022-11-18T16:06:38.386Z,10.70
2022-11-18T16:09:46.202Z,10.70
2022-11-18T16:12:46.951Z,10.70
2022-11-18T16:15:44.425Z,10.70
2022-11-18T16:18:30.847Z,10.60
2022-11-18T16:21:17.329Z,10.60
2022-11-18T16:24:05.698Z,10.60
2022-11-18T16:26:53.875Z,10.60
2022-11-18T16:29:40.256Z,10.50
2022-11-18T16:32:27.202Z,10.60
2022-11-18T16:35:13.544Z,10.50
2022-11-18T16:37:59.961Z,10.50
2022-11-18T16:40:46.280Z,10.60
2022-11-18T16:43:34.071Z,10.50
2022-11-18T16:46:20.577Z,10.50
2022-11-18T16:49:08.106Z,10.50
2022-11-18T16:51:56.847Z,10.60
2022-11-18T16:54:46.021Z,10.50
2022-11-18T16:57:33.048Z,10.50
2022-11-18T17:00:36.898Z,10.50
2022-11-18T17:03:28.444Z,10.60
2022-11-18T17:06:14.866Z,10.60
2022-11-18T17:09:01.734Z,10.60
2022-11-18T17:11:48.779Z,10.50
2022-11-18T17:14:37.947Z,10.50
2022-11-18T17:17:25.855Z,10.50
2022-11-18T17:20:12.243Z,10.40
2022-11-18T17:22:58.873Z,10.30
2022-11-18T17:25:45.348Z,10.30
2022-11-18T17:28:33.098Z,10.30
2022-11-18T17:31:21.452Z,10.20
2022-11-18T17:34:11.257Z,10.20
2022-11-18T17:37:03.101Z,10.20
2022-11-18T17:39:52.934Z,10.20
2022-11-18T17:42:39.330Z,10.20
2022-11-18T17:45:25.790Z,10.20
2022-11-18T17:48:12.134Z,10.20
2022-11-18T17:51:05.949Z,10.10
2022-11-18T17:53:52.635Z,10.10
2022-11-18T17:56:39.384Z,10.10
2022-11-18T17:59:25.801Z,10.10
2022-11-18T18:02:13.362Z,10.20
2022-11-18T18:05:00.195Z,10.20
2022-11-18T18:07:48.226Z,10.10
2022-11-18T18:10:34.683Z,10.10
2022-11-18T18:13:37.596Z,10.10
2022-11-18T18:16:25.042Z,10.10
2022-11-18T18:19:13.214Z,10.10
2022-11-18T18:21:59.559Z,10.20
2022-11-18T18:24:47.200Z,10.10
2022-11-18T18:27:33.739Z,10.10
2022-11-18T18:30:20.167Z,10.20
2022-11-18T18:33:07.141Z,10.10
2022-11-18T18:35:57.285Z,10.10
2022-11-18T18:38:45.187Z,10.20
2022-11-18T18:41:33.334Z,10.10
2022-11-18T18:44:20.267Z,10.10
2022-11-18T18:47:09.426Z,10.10
2022-11-18T18:49:55.879Z,10.20
2022-11-18T18:52:42.735Z,10.10
2022-11-18T18:55:29.328Z,10.10
2022-11-18T18:58:17.022Z,10.10
2022-11-18T19:01:08.148Z,10.00
2022-11-18T19:03:56.488Z,10.10
2022-11-18T19:06:59.560Z,10.10
2022-11-18T19:09:46.935Z,10.00
2022-11-18T19:12:51.584Z,9.90
2022-11-18T19:15:39.508Z,9.90
2022-11-18T19:18:26.331Z,10.00
2022-11-18T19:21:13.294Z,9.90
2022-11-18T19:23:59.702Z,9.90
2022-11-18T19:26:46.080Z,10.00
2022-11-18T19:29:32.610Z,10.10
2022-11-18T19:32:21.021Z,10.00
2022-11-18T19:35:09.142Z,10.00
2022-11-18T19:37:55.588Z,10.00
2022-11-18T19:40:41.975Z,10.00
2022-11-18T19:43:28.609Z,10.00
2022-11-18T19:46:15.113Z,10.00
2022-11-18T19:49:02.826Z,9.90
2022-11-18T19:51:49.281Z,9.90
2022-11-18T19:54:36.273Z,9.90
2022-11-18T19:57:22.588Z,9.80
2022-11-18T20:00:11.007Z,9.90
2022-11-18T20:03:00.118Z,9.80
2022-11-18T20:05:53.649Z,9.80
2022-11-18T20:08:41.363Z,9.80
2022-11-18T20:11:28.729Z,9.70
2022-11-18T20:14:15.517Z,9.70
2022-11-18T20:17:02.370Z,9.70
2022-11-18T20:19:48.780Z,9.60
2022-11-18T20:22:36.712Z,9.70
2022-11-18T20:25:23.532Z,9.70
2022-11-18T20:28:12.329Z,9.70
2022-11-18T20:30:59.971Z,9.60
2022-11-18T20:33:49.585Z,9.50
2022-11-18T20:36:37.597Z,9.50
2022-11-18T20:39:25.764Z,9.50
2022-11-18T20:42:29.579Z,9.50
2022-11-18T20:45:16.388Z,9.40
2022-11-18T20:48:02.961Z,9.40
2022-11-18T20:50:49.481Z,9.40
2022-11-18T20:53:37.786Z,9.50
2022-11-18T20:56:28.194Z,9.50
2022-11-18T20:59:14.723Z,9.50
2022-11-18T21:02:02.007Z,9.50
2022-11-18T21:04:48.617Z,9.50
2022-11-18T21:07:35.823Z,9.50
2022-11-18T21:10:22.503Z,9.50
2022-11-18T21:13:27.826Z,9.40
2022-11-18T21:16:14.633Z,9.40
2022-11-18T21:19:01.263Z,9.40
2022-11-18T21:21:48.855Z,9.30
2022-11-18T21:24:35.895Z,9.30
2022-11-18T21:27:22.658Z,9.30
2022-11-18T21:30:11.974Z,9.20
2022-11-18T21:32:58.387Z,9.20
2022-11-18T21:35:44.929Z,9.20
2022-11-18T21:38:31.851Z,9.10
2022-11-18T21:41:19.195Z,9.10
2022-11-18T21:44:09.510Z,9.10
2022-11-18T21:46:57.948Z,9.10
2022-11-18T21:49:44.573Z,9.10
2022-11-18T21:52:30.958Z,9.10
2022-11-18T21:55:17.585Z,9.00
2022-11-18T21:58:04.267Z,9.00
2022-11-18T22:00:51.063Z,9.10
2022-11-18T22:03:40.351Z,9.20
2022-11-18T22:06:30.168Z,9.20
2022-11-18T22:09:17.241Z,9.30
2022-11-18T22:12:04.173Z,9.50
2022-11-18T22:14:50.706Z,9.50
2022-11-18T22:17:37.146Z,9.40
2022-11-18T22:20:25.707Z,9.40
2022-11-18T22:23:12.015Z,9.40
2022-11-18T22:25:59.529Z,9.30
2022-11-18T22:28:46.921Z,9.20
2022-11-18T22:31:33.387Z,9.20
2022-11-18T22:34:20.199Z,9.20
2022-11-18T22:37:08.483Z,9.20
2022-11-18T22:39:55.511Z,9.10
2022-11-18T22:42:50.807Z,9.20
2022-11-18T22:45:37.284Z,9.20
2022-11-18T22:48:26.720Z,9.20
2022-11-18T22:51:13.150Z,9.20
2022-11-18T22:54:37.630Z,9.10
2022-11-18T22:57:07.705Z,9.20
2022-11-18T22:59:54.658Z,9.00
2022-11-18T23:02:41.180Z,8.90
2022-11-18T23:05:27.606Z,9.00
2022-11-18T23:08:14.116Z,8.90
2022-11-18T23:11:04.332Z,9.00
2022-11-18T23:14:04.422Z,9.00
2022-11-18T23:16:50.832Z,9.00
2022-11-18T23:19:41.807Z,9.00
2022-11-18T23:22:28.499Z,9.00
2022-11-18T23:25:16.266Z,9.00
2022-11-18T23:28:03.887Z,9.00
2022-11-18T23:30:50.181Z,8.90
2022-11-18T23:33:36.797Z,8.90
2022-11-18T23:36:24.193Z,8.90
2022-11-18T23:39:10.947Z,8.90
2022-11-18T23:41:57.536Z,8.90
2022-11-18T23:44:52.557Z,9.00
2022-11-18T23:47:39.238Z,9.00
2022-11-18T23:50:26.035Z,9.00
2022-11-18T23:53:12.964Z,9.00
2022-11-18T23:55:59.630Z,9.00
2022-11-18T23:58:48.105Z,9.00
